createdAt,value
2018-08-18T00:02:17.188Z,1.53
2018-08-18T00:04:45.556Z,2.10
2018-08-18T00:07:13.937Z,1.50
2018-08-18T00:09:42.290Z,1.93
2018-08-18T00:12:15.170Z,1.63
2018-08-18T00:14:43.366Z,1.70
2018-08-18T00:17:11.717Z,1.90
2018-08-18T00:19:40.080Z,1.33
2018-08-18T00:22:08.373Z,1.47
2018-08-18T00:24:42.707Z,1.50
2018-08-18T00:27:11.023Z,1.80
2018-08-18T00:29:39.321Z,1.70
2018-08-18T00:32:07.700Z,1.47
2018-08-18T00:34:40.497Z,1.50
2018-08-18T00:37:08.819Z,1.43
2018-08-18T00:39:37.130Z,1.77
2018-08-18T00:42:05.601Z,1.60
2018-08-18T00:44:33.939Z,2.00
2018-08-18T00:47:02.231Z,2.10
2018-08-18T00:49:30.525Z,1.70
2018-08-18T00:51:58.787Z,1.67
2018-08-18T00:54:27.166Z,1.53
2018-08-18T00:57:05.002Z,2.90
2018-08-18T00:59:40.491Z,2.00
2018-08-18T01:02:08.890Z,1.50
2018-08-18T01:04:42.591Z,2.20
2018-08-18T01:07:15.172Z,1.80
2018-08-18T01:09:44.807Z,1.97
2018-08-18T01:12:13.233Z,1.50
2018-08-18T01:14:41.554Z,2.10
2018-08-18T01:17:09.896Z,2.37
2018-08-18T01:19:42.044Z,1.93
2018-08-18T01:22:10.583Z,2.33
2018-08-18T01:24:39.357Z,1.83
2018-08-18T01:27:07.731Z,2.00
2018-08-18T01:29:35.969Z,1.93
2018-08-18T01:32:04.350Z,1.90
2018-08-18T01:34:32.647Z,2.00
2018-08-18T01:37:07.434Z,1.53
2018-08-18T01:39:35.713Z,1.73
2018-08-18T01:42:03.969Z,2.20
2018-08-18T01:44:32.325Z,2.10
2018-08-18T01:47:06.821Z,2.00
2018-08-18T01:49:36.153Z,2.00
2018-08-18T01:52:13.077Z,1.73
2018-08-18T01:54:41.881Z,1.77
2018-08-18T01:57:10.992Z,2.07
2018-08-18T01:59:40.512Z,2.00
2018-08-18T02:02:28.794Z,1.83
2018-08-18T02:05:05.715Z,2.07
2018-08-18T02:07:34.301Z,1.80
2018-08-18T02:10:02.508Z,1.90
2018-08-18T02:12:30.819Z,2.00
2018-08-18T02:14:59.821Z,1.87
2018-08-18T02:17:31.177Z,1.47
2018-08-18T02:19:59.870Z,1.60
2018-08-18T02:22:28.686Z,1.50
2018-08-18T02:24:56.959Z,2.00
2018-08-18T02:27:25.485Z,2.10
2018-08-18T02:30:05.685Z,1.50
2018-08-18T02:32:36.170Z,1.90
2018-08-18T02:35:05.193Z,1.80
2018-08-18T02:37:33.547Z,1.90
2018-08-18T02:40:01.818Z,1.67
2018-08-18T02:42:30.112Z,1.60
2018-08-18T02:44:58.398Z,2.50
2018-08-18T02:47:26.715Z,2.60
2018-08-18T02:49:55.718Z,1.70
2018-08-18T02:52:26.112Z,2.20
2018-08-18T02:54:57.291Z,1.93
2018-08-18T02:57:27.754Z,2.10
2018-08-18T02:59:58.171Z,1.93
2018-08-18T03:02:26.493Z,1.90
2018-08-18T03:04:54.831Z,1.90
2018-08-18T03:07:23.525Z,2.20
2018-08-18T03:09:51.967Z,2.47
2018-08-18T03:12:20.391Z,1.97
2018-08-18T03:14:48.785Z,2.40
2018-08-18T03:17:17.089Z,2.00
2018-08-18T03:19:46.243Z,2.00
2018-08-18T03:22:14.489Z,2.07
2018-08-18T03:24:42.693Z,2.80
2018-08-18T03:27:10.954Z,2.37
2018-08-18T03:29:44.561Z,2.70
2018-08-18T03:32:12.803Z,2.03
2018-08-18T03:34:41.035Z,2.00
2018-08-18T03:37:26.039Z,2.07
2018-08-18T03:39:54.475Z,2.27
2018-08-18T03:42:29.635Z,3.33
2018-08-18T03:44:57.952Z,2.10
2018-08-18T03:47:26.753Z,1.63
2018-08-18T03:49:55.048Z,2.30
2018-08-18T03:52:23.384Z,2.93
2018-08-18T03:54:51.821Z,2.40
2018-08-18T03:57:20.289Z,2.27
2018-08-18T03:59:48.638Z,2.03
2018-08-18T04:02:17.758Z,2.20
2018-08-18T04:04:46.224Z,2.20
2018-08-18T04:07:14.536Z,2.00
2018-08-18T04:09:42.743Z,2.20
2018-08-18T04:12:11.418Z,2.13
2018-08-18T04:14:41.756Z,1.70
2018-08-18T04:17:21.271Z,2.03
2018-08-18T04:19:49.837Z,2.60
2018-08-18T04:22:18.204Z,1.77
2018-08-18T04:24:47.897Z,2.40
2018-08-18T04:27:33.401Z,2.47
2018-08-18T04:30:01.690Z,2.10
2018-08-18T04:32:30.046Z,2.57
2018-08-18T04:34:58.422Z,2.50
2018-08-18T04:37:26.704Z,2.10
2018-08-18T04:39:55.001Z,2.37
2018-08-18T04:42:23.356Z,2.83
2018-08-18T04:44:51.683Z,2.13
2018-08-18T04:47:29.148Z,1.90
2018-08-18T04:49:57.517Z,2.43
2018-08-18T04:52:25.874Z,3.70
2018-08-18T04:54:54.149Z,1.97
2018-08-18T04:57:22.748Z,1.87
2018-08-18T04:59:51.213Z,2.23
2018-08-18T05:02:19.604Z,2.73
2018-08-18T05:04:47.979Z,3.03
2018-08-18T05:07:16.459Z,2.73
2018-08-18T05:09:44.722Z,2.73
2018-08-18T05:12:12.889Z,3.27
2018-08-18T05:14:41.140Z,2.77
2018-08-18T05:17:09.400Z,3.60
2018-08-18T05:19:38.575Z,2.30
2018-08-18T05:22:06.946Z,2.27
2018-08-18T05:24:35.234Z,2.60
2018-08-18T05:27:10.647Z,2.53
2018-08-18T05:29:39.461Z,3.70
2018-08-18T05:32:09.253Z,2.77
2018-08-18T05:34:37.557Z,2.70
2018-08-18T05:37:05.947Z,2.90
2018-08-18T05:39:34.283Z,2.80
2018-08-18T05:42:02.649Z,4.20
2018-08-18T05:44:30.990Z,2.80
2018-08-18T05:46:59.380Z,4.00
2018-08-18T05:49:27.613Z,2.27
2018-08-18T05:51:55.948Z,2.90
2018-08-18T05:54:26.051Z,2.70
2018-08-18T05:56:54.298Z,3.03
2018-08-18T05:59:22.622Z,3.27
2018-08-18T06:01:52.112Z,3.10
2018-08-18T06:04:21.621Z,2.37
2018-08-18T06:06:50.981Z,3.10
2018-08-18T06:09:21.239Z,2.80
2018-08-18T06:11:49.516Z,3.77
2018-08-18T06:14:18.250Z,3.83
2018-08-18T06:16:46.932Z,2.53
2018-08-18T06:19:15.309Z,2.47
2018-08-18T06:21:43.754Z,2.90
2018-08-18T06:24:12.012Z,4.67
2018-08-18T06:26:40.389Z,3.63
2018-08-18T06:29:08.724Z,3.20
2018-08-18T06:31:52.486Z,3.27
2018-08-18T06:34:20.836Z,3.87
2018-08-18T06:36:49.075Z,2.73
2018-08-18T06:39:17.292Z,3.13
2018-08-18T06:41:45.693Z,2.80
2018-08-18T06:44:15.218Z,3.23
2018-08-18T06:46:43.733Z,3.13
2018-08-18T06:49:12.004Z,4.50
2018-08-18T06:51:40.344Z,3.57
2018-08-18T06:54:08.711Z,3.83
2018-08-18T06:56:37.153Z,3.87
2018-08-18T06:59:09.274Z,2.97
2018-08-18T07:01:37.787Z,3.40
2018-08-18T07:04:08.169Z,3.00
2018-08-18T07:06:36.569Z,4.33
2018-08-18T07:09:05.965Z,4.50
2018-08-18T07:11:34.449Z,3.27
2018-08-18T07:14:03.276Z,2.97
2018-08-18T07:16:31.642Z,3.77
2018-08-18T07:18:59.894Z,3.60
2018-08-18T07:21:28.244Z,4.00
2018-08-18T07:23:56.521Z,4.37
2018-08-18T07:26:24.910Z,4.70
2018-08-18T07:28:54.370Z,5.00
2018-08-18T07:31:23.542Z,4.37
2018-08-18T07:33:52.201Z,3.63
2018-08-18T07:36:20.460Z,3.07
2018-08-18T07:38:48.741Z,3.50
2018-08-18T07:41:17.061Z,3.33
2018-08-18T07:43:45.330Z,3.20
2018-08-18T07:46:13.528Z,4.60
2018-08-18T07:48:41.782Z,4.03
2018-08-18T07:51:09.996Z,2.83
2018-08-18T07:53:38.474Z,3.60
2018-08-18T07:56:06.661Z,4.70
2018-08-18T07:58:37.669Z,3.70
2018-08-18T08:01:05.903Z,4.53
2018-08-18T08:03:34.179Z,3.53
2018-08-18T08:06:02.484Z,4.20
2018-08-18T08:08:36.147Z,2.53
2018-08-18T08:11:18.753Z,4.97
2018-08-18T08:13:47.001Z,3.93
2018-08-18T08:16:15.182Z,3.73
2018-08-18T08:18:43.438Z,3.83
2018-08-18T08:21:11.631Z,3.53
2018-08-18T08:23:39.853Z,3.07
2018-08-18T08:26:08.165Z,2.97
2018-08-18T08:28:36.442Z,3.40
2018-08-18T08:31:04.631Z,3.60
2018-08-18T08:33:37.120Z,3.00
2018-08-18T08:36:08.053Z,3.77
2018-08-18T08:38:49.941Z,4.30
2018-08-18T08:41:18.121Z,4.50
2018-08-18T08:43:47.630Z,3.80
2018-08-18T08:46:15.774Z,3.90
2018-08-18T08:48:43.942Z,3.80
2018-08-18T08:51:12.097Z,4.87
2018-08-18T08:53:40.263Z,4.00
2018-08-18T08:56:08.502Z,4.23
2018-08-18T08:58:40.953Z,3.47
2018-08-18T09:01:09.360Z,3.43
2018-08-18T09:03:37.548Z,3.93
2018-08-18T09:06:06.230Z,4.00
2018-08-18T09:08:34.422Z,4.20
2018-08-18T09:11:02.672Z,4.20
2018-08-18T09:13:32.133Z,4.30
2018-08-18T09:16:00.338Z,3.93
2018-08-18T09:18:28.473Z,5.47
2018-08-18T09:20:56.650Z,3.73
2018-08-18T09:23:24.786Z,4.50
2018-08-18T09:25:52.957Z,3.30
2018-08-18T09:28:22.138Z,3.30
2018-08-18T09:30:50.488Z,4.13
2018-08-18T09:33:18.638Z,3.63
2018-08-18T09:35:59.387Z,3.67
2018-08-18T09:38:28.538Z,3.20
2018-08-18T09:40:56.723Z,4.63
2018-08-18T09:43:25.698Z,3.43
2018-08-18T09:45:55.325Z,3.87
2018-08-18T09:48:24.321Z,3.20
2018-08-18T09:50:53.089Z,4.40
2018-08-18T09:53:21.264Z,3.73
2018-08-18T09:55:49.847Z,2.90
2018-08-18T09:58:17.982Z,3.50
2018-08-18T10:00:46.110Z,3.53
2018-08-18T10:03:14.245Z,3.83
2018-08-18T10:05:42.366Z,4.77
2018-08-18T10:08:10.526Z,3.37
2018-08-18T10:10:38.760Z,4.03
2018-08-18T10:13:06.961Z,5.90
2018-08-18T10:15:35.421Z,3.20
2018-08-18T10:18:03.927Z,3.53
2018-08-18T10:20:37.441Z,3.57
2018-08-18T10:23:06.783Z,4.10
2018-08-18T10:25:34.924Z,4.20
2018-08-18T10:28:03.184Z,4.73
2018-08-18T10:30:31.325Z,3.40
2018-08-18T10:32:59.459Z,4.60
2018-08-18T10:35:30.964Z,4.20
2018-08-18T10:38:00.447Z,3.27
2018-08-18T10:40:28.584Z,3.50
2018-08-18T10:42:56.785Z,3.43
2018-08-18T10:45:24.895Z,3.60
2018-08-18T10:47:53.031Z,3.90
2018-08-18T10:51:33.270Z,3.57
2018-08-18T10:54:02.592Z,3.10
2018-08-18T10:56:30.725Z,3.67
2018-08-18T10:59:13.842Z,3.83
2018-08-18T11:02:01.072Z,3.30
2018-08-18T11:04:32.235Z,4.13
2018-08-18T11:07:00.427Z,4.03
2018-08-18T11:09:29.196Z,3.10
2018-08-18T11:11:57.492Z,3.20
2018-08-18T11:14:25.542Z,3.90
2018-08-18T11:16:53.674Z,3.57
2018-08-18T11:19:22.786Z,3.77
2018-08-18T11:22:02.217Z,4.90
2018-08-18T11:24:30.322Z,3.73
2018-08-18T11:26:58.481Z,3.93
2018-08-18T11:29:26.595Z,3.80
2018-08-18T11:31:54.718Z,3.33
2018-08-18T11:34:22.836Z,3.70
2018-08-18T11:37:02.478Z,3.57
2018-08-18T11:39:31.497Z,3.90
2018-08-18T11:42:00.141Z,2.87
2018-08-18T11:44:28.589Z,3.50
2018-08-18T11:46:56.755Z,3.40
2018-08-18T11:49:25.496Z,4.20
2018-08-18T11:51:54.847Z,4.13
2018-08-18T11:54:23.065Z,2.97
2018-08-18T11:56:53.609Z,3.27
2018-08-18T11:59:22.279Z,3.70
2018-08-18T12:01:52.948Z,2.67
2018-08-18T12:04:23.546Z,3.40
2018-08-18T12:06:56.605Z,3.40
2018-08-18T12:09:24.758Z,4.10
2018-08-18T12:11:52.914Z,2.83
2018-08-18T12:14:21.267Z,2.50
2018-08-18T12:16:50.983Z,3.33
2018-08-18T12:19:19.178Z,2.87
2018-08-18T12:21:47.592Z,4.20
2018-08-18T12:24:19.762Z,3.03
2018-08-18T12:26:59.404Z,4.10
2018-08-18T12:29:29.101Z,3.30
2018-08-18T12:31:57.511Z,4.27
2018-08-18T12:34:25.673Z,3.10
2018-08-18T12:36:53.963Z,2.87
2018-08-18T12:39:22.875Z,3.30
2018-08-18T12:41:51.027Z,3.60
2018-08-18T12:44:23.470Z,3.90
2018-08-18T12:46:51.617Z,3.40
2018-08-18T12:49:19.753Z,3.10
2018-08-18T12:51:47.946Z,3.30
2018-08-18T12:54:16.141Z,3.43
2018-08-18T12:56:44.253Z,2.90
2018-08-18T12:59:12.385Z,3.73
2018-08-18T13:01:43.217Z,3.53
2018-08-18T13:04:12.649Z,3.37
2018-08-18T13:06:45.968Z,3.13
2018-08-18T13:09:16.432Z,2.80
2018-08-18T13:11:46.364Z,2.93
2018-08-18T13:14:19.800Z,3.33
2018-08-18T13:16:47.917Z,3.53
2018-08-18T13:19:18.269Z,2.77
2018-08-18T13:21:46.412Z,2.57
2018-08-18T13:24:15.394Z,3.10
2018-08-18T13:26:43.483Z,2.60
2018-08-18T13:29:11.620Z,3.40
2018-08-18T13:31:41.678Z,2.87
2018-08-18T13:34:12.396Z,3.17
2018-08-18T13:36:41.802Z,3.10
2018-08-18T13:39:12.650Z,2.80
2018-08-18T13:41:41.347Z,2.57
2018-08-18T13:44:09.489Z,2.60
2018-08-18T13:46:45.460Z,2.77
2018-08-18T13:49:13.593Z,2.73
2018-08-18T13:51:41.769Z,2.83
2018-08-18T13:54:11.167Z,2.60
2018-08-18T13:56:39.401Z,2.70
2018-08-18T13:59:07.635Z,2.53
2018-08-18T14:01:40.750Z,2.47
2018-08-18T14:06:55.997Z,3.60
2018-08-18T14:09:27.167Z,2.80
2018-08-18T14:12:00.540Z,3.07
2018-08-18T14:14:28.693Z,2.83
2018-08-18T14:16:56.821Z,3.00
2018-08-18T14:19:24.970Z,2.70
2018-08-18T14:21:59.404Z,2.90
2018-08-18T14:24:33.150Z,2.97
2018-08-18T14:27:02.922Z,2.80
2018-08-18T14:29:32.422Z,2.90
2018-08-18T14:32:01.419Z,2.23
2018-08-18T14:34:30.732Z,2.93
2018-08-18T14:37:04.279Z,2.97
2018-08-18T14:39:37.821Z,3.20
2018-08-18T14:42:06.818Z,3.00
2018-08-18T14:44:35.365Z,2.73
2018-08-18T14:47:05.968Z,2.50
2018-08-18T14:49:34.248Z,2.97
2018-08-18T14:52:02.647Z,2.67
2018-08-18T14:54:32.588Z,2.60
2018-08-18T14:57:01.866Z,2.43
2018-08-18T14:59:33.189Z,2.10
2018-08-18T15:02:04.847Z,2.33
2018-08-18T15:04:33.672Z,2.30
2018-08-18T15:07:02.361Z,2.87
2018-08-18T15:09:34.794Z,2.70
2018-08-18T15:12:03.385Z,2.70
2018-08-18T15:14:33.059Z,2.50
2018-08-18T15:17:01.262Z,2.50
2018-08-18T15:19:29.527Z,2.73
2018-08-18T15:21:57.866Z,2.60
2018-08-18T15:24:26.005Z,2.63
2018-08-18T15:26:54.134Z,2.77
2018-08-18T15:29:22.332Z,2.50
2018-08-18T15:31:50.493Z,2.13
2018-08-18T15:34:18.832Z,2.10
2018-08-18T15:36:47.014Z,2.33
2018-08-18T15:39:15.330Z,2.60
2018-08-18T15:41:43.369Z,2.50
2018-08-18T15:44:11.574Z,2.60
2018-08-18T15:46:40.677Z,3.00
2018-08-18T15:49:08.822Z,2.30
2018-08-18T15:51:37.026Z,2.27
2018-08-18T15:54:05.189Z,2.10
2018-08-18T15:56:35.006Z,2.40
2018-08-18T15:59:03.901Z,2.40
2018-08-18T16:01:33.183Z,2.40
2018-08-18T16:04:02.421Z,2.20
2018-08-18T16:06:30.540Z,2.67
2018-08-18T16:08:58.705Z,2.40
2018-08-18T16:11:26.856Z,2.60
2018-08-18T16:13:55.027Z,2.40
2018-08-18T16:16:23.094Z,2.70
2018-08-18T16:19:03.485Z,2.20
2018-08-18T16:21:33.057Z,2.53
2018-08-18T16:24:01.491Z,2.50
2018-08-18T16:26:29.603Z,2.33
2018-08-18T16:28:57.758Z,2.13
2018-08-18T16:31:25.923Z,2.03
2018-08-18T16:33:54.133Z,2.03
2018-08-18T16:36:22.822Z,2.43
2018-08-18T16:38:50.981Z,2.90
2018-08-18T16:41:19.178Z,2.50
2018-08-18T16:43:47.345Z,2.87
2018-08-18T16:46:32.025Z,2.63
2018-08-18T16:49:00.187Z,2.90
2018-08-18T16:51:28.344Z,3.37
2018-08-18T16:54:10.972Z,2.20
2018-08-18T16:56:39.122Z,2.83
2018-08-18T16:59:07.318Z,2.30
2018-08-18T17:01:35.546Z,2.40
2018-08-18T17:04:03.990Z,3.07
2018-08-18T17:06:32.216Z,2.00
2018-08-18T17:09:01.457Z,2.57
2018-08-18T17:11:29.597Z,2.73
2018-08-18T17:13:59.387Z,2.53
2018-08-18T17:16:27.529Z,1.87
2018-08-18T17:18:55.680Z,2.80
2018-08-18T17:21:23.819Z,3.13
2018-08-18T17:23:51.970Z,2.37
2018-08-18T17:26:20.120Z,2.63
2018-08-18T17:28:48.284Z,2.77
2018-08-18T17:31:16.494Z,2.33
2018-08-18T17:33:44.630Z,2.17
2018-08-18T17:36:12.764Z,2.23
2018-08-18T17:38:40.925Z,3.13
2018-08-18T17:41:09.106Z,3.13
2018-08-18T17:43:37.295Z,2.40
2018-08-18T17:46:05.936Z,2.63
2018-08-18T17:48:40.929Z,2.43
2018-08-18T17:51:10.660Z,2.40
2018-08-18T17:53:43.086Z,3.00
2018-08-18T17:56:11.653Z,2.63
2018-08-18T17:58:40.040Z,3.17
2018-08-18T18:01:08.217Z,2.60
2018-08-18T18:03:36.457Z,2.90
2018-08-18T18:06:04.666Z,2.33
2018-08-18T18:08:33.023Z,2.73
2018-08-18T18:11:01.184Z,2.50
2018-08-18T18:13:30.078Z,2.20
2018-08-18T18:15:58.253Z,2.63
2018-08-18T18:18:36.234Z,3.20
2018-08-18T18:21:04.488Z,3.20
2018-08-18T18:23:32.689Z,2.77
2018-08-18T18:26:00.829Z,2.97
2018-08-18T18:28:28.967Z,3.07
2018-08-18T18:30:57.214Z,3.63
2018-08-18T18:33:25.352Z,2.40
2018-08-18T18:35:53.572Z,2.40
2018-08-18T18:38:21.770Z,2.97
2018-08-18T18:40:49.937Z,2.97
2018-08-18T18:43:18.309Z,3.03
2018-08-18T18:45:46.568Z,2.47
2018-08-18T18:48:15.648Z,3.40
2018-08-18T18:50:45.634Z,2.33
2018-08-18T18:53:13.932Z,2.67
2018-08-18T18:55:47.469Z,2.73
2018-08-18T18:58:15.695Z,2.87
2018-08-18T19:00:46.926Z,3.30
2018-08-18T19:03:15.055Z,2.63
2018-08-18T19:05:47.164Z,2.40
2018-08-18T19:08:18.041Z,2.30
2018-08-18T19:10:46.329Z,3.20
2018-08-18T19:13:14.480Z,2.53
2018-08-18T19:15:43.628Z,2.00
2018-08-18T19:18:12.410Z,2.90
2018-08-18T19:20:40.557Z,3.93
2018-08-18T19:23:14.145Z,3.10
2018-08-18T19:25:43.756Z,2.77
2018-08-18T19:28:14.265Z,3.20
2018-08-18T19:30:42.484Z,3.30
2018-08-18T19:33:11.472Z,3.70
2018-08-18T19:35:48.898Z,3.10
2018-08-18T19:38:17.911Z,3.30
2018-08-18T19:40:47.602Z,3.50
2018-08-18T19:43:21.513Z,3.57
2018-08-18T19:45:50.113Z,2.77
2018-08-18T19:48:21.091Z,3.57
2018-08-18T19:50:56.801Z,2.60
2018-08-18T19:53:28.113Z,3.00
2018-08-18T19:55:57.528Z,2.90
2018-08-18T19:58:26.406Z,2.37
2018-08-18T20:00:54.697Z,2.30
2018-08-18T20:03:23.599Z,3.67
2018-08-18T20:05:51.753Z,2.50
2018-08-18T20:08:21.301Z,3.03
2018-08-18T20:10:54.777Z,2.63
2018-08-18T20:13:24.182Z,2.57
2018-08-18T20:15:53.651Z,3.23
2018-08-18T20:18:21.873Z,2.63
2018-08-18T20:20:49.981Z,3.67
2018-08-18T20:23:19.201Z,3.07
2018-08-18T20:25:48.183Z,2.80
2018-08-18T20:28:16.368Z,2.70
2018-08-18T20:30:44.493Z,4.00
2018-08-18T20:33:12.674Z,3.00
2018-08-18T20:35:40.799Z,3.37
2018-08-18T20:38:08.925Z,3.07
2018-08-18T20:40:37.149Z,2.57
2018-08-18T20:43:05.399Z,2.30
2018-08-18T20:45:52.864Z,3.20
2018-08-18T20:48:22.520Z,3.00
2018-08-18T20:50:51.008Z,3.03
2018-08-18T20:53:19.405Z,3.03
2018-08-18T20:55:57.606Z,3.63
2018-08-18T20:58:26.126Z,3.10
2018-08-18T21:00:54.291Z,2.70
2018-08-18T21:03:25.117Z,3.00
2018-08-18T21:05:53.261Z,2.90
2018-08-18T21:08:21.390Z,3.17
2018-08-18T21:10:49.850Z,2.77
2018-08-18T21:13:17.981Z,3.90
2018-08-18T21:15:46.123Z,2.60
2018-08-18T21:18:19.585Z,3.90
2018-08-18T21:20:48.175Z,3.43
2018-08-18T21:23:16.985Z,3.10
2018-08-18T21:25:48.169Z,2.80
2018-08-18T21:28:17.528Z,2.47
2018-08-18T21:30:45.739Z,3.30
2018-08-18T21:33:13.889Z,2.90
2018-08-18T21:35:42.061Z,3.00
2018-08-18T21:38:10.505Z,3.17
2018-08-18T21:40:38.765Z,3.03
2018-08-18T21:43:15.274Z,2.80
2018-08-18T21:45:43.434Z,3.00
2018-08-18T21:48:11.600Z,3.00
2018-08-18T21:50:39.774Z,2.60
2018-08-18T21:53:08.149Z,3.17
2018-08-18T21:55:36.367Z,3.77
2018-08-18T21:58:04.693Z,2.90
2018-08-18T22:00:38.374Z,4.00
2018-08-18T22:03:06.825Z,3.10
2018-08-18T22:05:35.052Z,3.03
2018-08-18T22:08:03.272Z,3.60
2018-08-18T22:10:31.446Z,2.87
2018-08-18T22:12:59.619Z,2.33
2018-08-18T22:15:31.274Z,3.17
2018-08-18T22:17:59.502Z,3.50
2018-08-18T22:20:27.795Z,3.17
2018-08-18T22:22:55.984Z,3.03
2018-08-18T22:25:24.150Z,2.47
2018-08-18T22:27:52.875Z,2.60
2018-08-18T22:30:24.494Z,2.50
2018-08-18T22:32:52.622Z,2.90
2018-08-18T22:35:20.786Z,3.07
2018-08-18T22:37:48.934Z,2.87
2018-08-18T22:40:17.066Z,2.90
2018-08-18T22:42:45.264Z,3.87
2018-08-18T22:45:30.080Z,2.87
2018-08-18T22:47:58.737Z,2.90
2018-08-18T22:50:26.997Z,3.40
2018-08-18T22:52:55.387Z,2.47
2018-08-18T22:55:23.580Z,3.00
2018-08-18T22:57:54.645Z,2.93
2018-08-18T23:00:23.496Z,2.43
2018-08-18T23:02:53.297Z,2.97
2018-08-18T23:05:21.796Z,2.80
2018-08-18T23:07:50.677Z,2.47
2018-08-18T23:10:18.840Z,2.70
2018-08-18T23:12:47.043Z,2.93
2018-08-18T23:15:15.229Z,2.90
2018-08-18T23:17:43.412Z,2.73
2018-08-18T23:20:11.612Z,2.93
2018-08-18T23:22:52.649Z,2.87
2018-08-18T23:25:21.366Z,2.63
2018-08-18T23:27:49.527Z,2.63
2018-08-18T23:30:25.788Z,2.53
2018-08-18T23:32:53.976Z,2.40
2018-08-18T23:35:23.988Z,2.80
2018-08-18T23:37:59.025Z,2.50
2018-08-18T23:40:27.443Z,2.70
2018-08-18T23:42:55.685Z,2.53
2018-08-18T23:45:24.546Z,3.00
2018-08-18T23:47:58.369Z,3.57
2018-08-18T23:50:27.405Z,2.80
2018-08-18T23:53:01.079Z,3.37
2018-08-18T23:55:30.294Z,3.43
2018-08-18T23:57:59.336Z,2.60
